Time;durP1;ratioP1;P1;durP2;ratioP2;P2;SDS_P1;SDS_P2;PMS_P1;PMS_P2;Temp;Humidity;BMP_temperature;BMP_pressure;BME280_temperature;BME280_humidity;BME280_pressure;Samples;Min_cycle;Max_cycle;Signal;HPM_P1;HPM_P2
2021/03/26 00:01:10;;;;;;;30.13;22.70;;;7.80;99.90;;;;;;4989446;28;20038;-74
2021/03/26 00:03:40;;;;;;;34.50;23.02;;;7.80;99.90;;;;;;4972099;28;20038;-74
2021/03/26 00:06:11;;;;;;;28.23;21.80;;;7.70;99.90;;;;;;4992548;28;20034;-74
2021/03/26 00:08:37;;;;;;;31.80;23.50;;;7.60;99.90;;;;;;4985471;28;20025;-75
2021/03/26 00:11:03;;;;;;;33.63;21.95;;;7.60;99.90;;;;;;4990935;28;20105;-73
2021/03/26 00:13:29;;;;;;;27.30;21.13;;;7.60;99.90;;;;;;4988653;28;20034;-74
2021/03/26 00:15:55;;;;;;;30.90;20.13;;;7.80;99.90;;;;;;4990898;28;20073;-74
2021/03/26 00:18:21;;;;;;;30.08;19.58;;;7.70;99.90;;;;;;4987264;28;20032;-74
2021/03/26 00:20:47;;;;;;;27.08;19.75;;;7.70;99.90;;;;;;4986097;28;20121;-74
2021/03/26 00:23:13;;;;;;;27.35;20.48;;;7.80;99.90;;;;;;4990868;28;20097;-74
2021/03/26 00:25:39;;;;;;;33.05;21.23;;;7.60;99.90;;;;;;4991643;28;20587;-73
2021/03/26 00:28:06;;;;;;;25.38;18.67;;;7.70;99.90;;;;;;4989583;28;20105;-74
2021/03/26 00:30:32;;;;;;;27.67;21.23;;;7.60;99.90;;;;;;4989473;28;20026;-74
2021/03/26 00:32:59;;;;;;;24.60;19.50;;;7.60;99.90;;;;;;4991558;28;20085;-74
2021/03/26 00:35:26;;;;;;;23.35;19.48;;;7.50;99.90;;;;;;4990560;28;20042;-74
2021/03/26 00:37:51;;;;;;;29.58;19.85;;;7.60;99.90;;;;;;4987966;28;20030;-74
2021/03/26 00:40:18;;;;;;;30.27;19.20;;;7.60;99.90;;;;;;4990463;28;20030;-73
2021/03/26 00:42:45;;;;;;;29.92;20.30;;;7.60;99.90;;;;;;4990576;28;20567;-74
2021/03/26 00:45:15;;;;;;;30.90;20.45;;;7.60;99.90;;;;;;4971874;28;20022;-73
2021/03/26 00:47:42;;;;;;;26.17;18.13;;;7.50;99.90;;;;;;4984252;28;20038;-73
2021/03/26 00:50:15;;;;;;;24.75;18.30;;;7.60;99.90;;;;;;4989512;28;20031;-74
2021/03/26 00:52:41;;;;;;;23.48;18.17;;;7.60;99.90;;;;;;4974205;28;20031;-74
2021/03/26 00:55:07;;;;;;;30.60;20.17;;;7.50;99.90;;;;;;4990813;28;20026;-74
2021/03/26 00:57:33;;;;;;;25.67;20.27;;;7.40;99.90;;;;;;4990648;28;20552;-73
2021/03/26 00:59:59;;;;;;;29.17;22.15;;;7.50;99.90;;;;;;4984409;28;20037;-73
2021/03/26 01:02:24;;;;;;;24.08;19.27;;;7.50;99.90;;;;;;4989698;28;20030;-73
2021/03/26 01:04:50;;;;;;;30.00;20.27;;;7.40;99.90;;;;;;4991006;28;20038;-73
2021/03/26 01:07:16;;;;;;;29.35;18.95;;;7.40;99.90;;;;;;4991538;28;20026;-74
2021/03/26 01:09:42;;;;;;;23.35;18.90;;;7.30;99.90;;;;;;4977087;28;20129;-74
2021/03/26 01:12:09;;;;;;;26.77;21.70;;;7.20;99.90;;;;;;4991372;28;20097;-74
2021/03/26 01:14:34;;;;;;;25.27;18.65;;;7.20;99.90;;;;;;4990958;28;20026;-73
2021/03/26 01:17:00;;;;;;;24.45;18.23;;;7.20;99.90;;;;;;4973052;28;20113;-73
2021/03/26 01:19:27;;;;;;;28.08;19.05;;;7.20;99.90;;;;;;4991850;28;20026;-73
2021/03/26 01:21:53;;;;;;;25.83;17.52;;;7.20;99.90;;;;;;4998117;28;20670;-74
2021/03/26 01:24:19;;;;;;;30.05;18.92;;;7.20;99.90;;;;;;4998530;28;20038;-74
2021/03/26 01:26:45;;;;;;;29.63;17.50;;;7.20;99.90;;;;;;4996120;28;20049;-73
2021/03/26 01:29:11;;;;;;;28.85;19.13;;;7.20;99.90;;;;;;4990742;28;20026;-74
2021/03/26 01:31:39;;;;;;;24.67;17.20;;;7.20;99.90;;;;;;4990374;28;20026;-74
2021/03/26 01:34:06;;;;;;;24.50;16.92;;;7.20;99.90;;;;;;4972676;28;20019;-75
2021/03/26 01:36:32;;;;;;;29.17;17.90;;;7.20;99.90;;;;;;4991363;28;20049;-74
2021/03/26 01:38:58;;;;;;;21.60;16.38;;;7.20;99.90;;;;;;4990359;28;20022;-74
2021/03/26 01:41:43;;;;;;;22.67;17.95;;;7.20;99.90;;;;;;4990969;28;20816;-74
2021/03/26 01:44:10;;;;;;;22.27;15.73;;;7.30;99.90;;;;;;4990815;28;20029;-74
2021/03/26 01:46:37;;;;;;;23.25;16.00;;;7.30;99.90;;;;;;4982776;28;20161;-75
2021/03/26 01:49:06;;;;;;;24.55;16.98;;;7.40;99.90;;;;;;4990305;28;20034;-74
2021/03/26 01:51:36;;;;;;;19.92;16.55;;;7.40;99.90;;;;;;4990628;28;20498;-74
2021/03/26 01:54:05;;;;;;;21.48;16.08;;;7.30;99.90;;;;;;4990662;28;20033;-75
2021/03/26 01:56:31;;;;;;;21.20;14.38;;;7.30;99.90;;;;;;4990970;28;20027;-75
2021/03/26 01:58:57;;;;;;;24.33;16.73;;;7.30;99.90;;;;;;4989568;28;20384;-75
2021/03/26 02:01:27;;;;;;;26.52;15.35;;;7.30;99.90;;;;;;4990546;28;20036;-73
2021/03/26 02:04:00;;;;;;;25.23;17.80;;;7.40;99.90;;;;;;4990338;28;20113;-73
2021/03/26 02:06:37;;;;;;;21.65;15.82;;;7.30;99.90;;;;;;4989871;28;20085;-73
2021/03/26 02:09:08;;;;;;;20.40;16.30;;;7.30;99.90;;;;;;4989091;28;20388;-73
2021/03/26 02:11:51;;;;;;;20.67;16.50;;;7.30;99.90;;;;;;4972383;28;20018;-74
2021/03/26 02:14:20;;;;;;;23.90;15.40;;;7.40;99.90;;;;;;4990085;28;20380;-73
2021/03/26 02:16:47;;;;;;;22.08;15.10;;;7.40;99.90;;;;;;4989447;28;20111;-73
2021/03/26 02:19:34;;;;;;;21.52;15.15;;;7.50;99.90;;;;;;4989626;28;20088;-74
2021/03/26 02:22:01;;;;;;;21.60;14.45;;;7.50;99.90;;;;;;4972732;28;20123;-74
2021/03/26 02:24:28;;;;;;;23.23;15.15;;;7.50;99.90;;;;;;4989954;28;20714;-74
2021/03/26 02:26:59;;;;;;;21.08;14.45;;;7.70;99.90;;;;;;4989632;28;20026;-74
2021/03/26 02:29:31;;;;;;;23.95;17.55;;;7.70;99.90;;;;;;4989196;28;20034;-75
2021/03/26 02:31:58;;;;;;;;;;;7.60;99.90;;;;;;4992369;28;20493;-74
2021/03/26 02:34:24;;;;;;;24.25;18.23;;;7.50;99.90;;;;;;4972923;28;19910;-75
2021/03/26 02:37:03;;;;;;;23.30;18.23;;;7.30;99.90;;;;;;4977794;28;20037;-74
2021/03/26 02:39:43;;;;;;;20.33;16.17;;;7.20;99.90;;;;;;4993899;28;20037;-73
2021/03/26 02:42:22;;;;;;;28.02;15.93;;;7.10;99.90;;;;;;4993224;28;20026;-74
2021/03/26 02:44:57;;;;;;;22.50;16.58;;;7.10;99.90;;;;;;4993475;28;20034;-74
2021/03/26 02:47:23;;;;;;;22.85;17.35;;;7.20;99.90;;;;;;4989174;28;20030;-73
2021/03/26 02:49:56;;;;;;;24.20;18.67;;;7.10;99.90;;;;;;4986435;28;20030;-74
2021/03/26 02:52:31;;;;;;;24.02;18.55;;;7.00;99.90;;;;;;4994279;28;20050;-74
2021/03/26 02:55:12;;;;;;;26.58;18.27;;;6.90;99.90;;;;;;4975054;28;20049;-74
2021/03/26 02:57:51;;;;;;;26.13;18.80;;;6.80;99.90;;;;;;4993311;28;20476;-74
2021/03/26 03:00:21;;;;;;;22.83;17.35;;;6.80;99.90;;;;;;4990799;28;20476;-74
2021/03/26 03:02:48;;;;;;;20.17;17.85;;;6.80;99.90;;;;;;4993430;28;20133;-74
2021/03/26 03:05:37;;;;;;;21.75;18.25;;;6.80;99.90;;;;;;4994328;28;20420;-74
2021/03/26 03:08:20;;;;;;;23.55;18.63;;;6.80;99.90;;;;;;4992497;28;20049;-74
2021/03/26 03:11:01;;;;;;;25.15;17.95;;;6.70;99.90;;;;;;4992490;28;20023;-74
2021/03/26 03:13:26;;;;;;;21.42;16.35;;;6.80;99.90;;;;;;4981454;28;20105;-75
2021/03/26 03:15:57;;;;;;;21.90;16.55;;;6.90;99.90;;;;;;4993168;28;20029;-74
2021/03/26 03:18:30;;;;;;;18.30;15.10;;;7.00;99.90;;;;;;4994002;28;20030;-74
2021/03/26 03:21:04;;;;;;;;;;;7.10;99.90;;;;;;4993678;28;20030;-74
2021/03/26 03:23:47;;;;;;;21.02;14.05;;;7.10;99.90;;;;;;4990956;28;20009;-74
2021/03/26 03:26:38;;;;;;;26.63;17.27;;;7.20;99.90;;;;;;4993736;28;20042;-74
2021/03/26 03:29:06;;;;;;;21.95;14.73;;;7.20;99.90;;;;;;4977232;28;20030;-74
2021/03/26 03:31:42;;;;;;;27.33;15.27;;;7.10;99.90;;;;;;4975798;28;20029;-74
2021/03/26 03:34:31;;;;;;;25.90;16.83;;;7.10;99.90;;;;;;4992931;28;20054;-75
2021/03/26 03:37:05;;;;;;;22.48;15.48;;;7.10;99.90;;;;;;4991052;28;20688;-74
2021/03/26 03:39:44;;;;;;;25.65;16.63;;;7.10;99.90;;;;;;4993361;28;20038;-74
2021/03/26 03:42:12;;;;;;;19.77;17.48;;;7.10;99.90;;;;;;4992701;28;20057;-74
2021/03/26 03:44:55;;;;;;;28.80;19.35;;;6.90;99.90;;;;;;4993192;28;20022;-74
2021/03/26 03:47:30;;;;;;;21.55;17.25;;;6.80;99.90;;;;;;4992188;28;20416;-74
2021/03/26 03:50:24;;;;;;;24.95;17.58;;;6.70;99.90;;;;;;4989991;28;20121;-74
2021/03/26 03:53:08;;;;;;;27.50;20.08;;;6.60;99.90;;;;;;4989928;28;20076;-74
2021/03/26 03:55:58;;;;;;;23.95;19.67;;;6.50;99.90;;;;;;4993221;28;20022;-74
2021/03/26 03:58:29;;;;;;;23.88;18.23;;;6.50;99.90;;;;;;4985898;28;20420;-74
2021/03/26 04:01:01;;;;;;;25.65;18.88;;;6.50;99.90;;;;;;4992855;28;20030;-75
2021/03/26 04:03:42;;;;;;;32.55;18.38;;;6.50;99.90;;;;;;4993502;28;20022;-72
2021/03/26 04:06:40;;;;;;;25.97;17.33;;;6.60;99.90;;;;;;4991982;28;20027;-73
2021/03/26 04:09:13;;;;;;;24.85;16.67;;;6.80;99.90;;;;;;4992518;28;20038;-74
2021/03/26 04:11:55;;;;;;;22.55;16.58;;;6.80;99.90;;;;;;4992114;28;20100;-74
2021/03/26 04:14:29;;;;;;;19.70;16.38;;;6.80;99.90;;;;;;4991975;28;20097;-74
2021/03/26 04:17:07;;;;;;;21.63;18.42;;;6.90;99.90;;;;;;4992589;28;20514;-74
2021/03/26 04:19:46;;;;;;;24.90;16.58;;;6.90;99.90;;;;;;4986577;28;20030;-74
2021/03/26 04:22:17;;;;;;;23.52;16.48;;;6.90;99.90;;;;;;4955614;28;20509;-74
2021/03/26 04:24:54;;;;;;;23.73;13.70;;;6.80;99.90;;;;;;4981529;28;20040;-74
2021/03/26 04:27:35;;;;;;;21.38;16.98;;;6.80;99.90;;;;;;4991798;28;20030;-74
2021/03/26 04:30:25;;;;;;;24.15;17.30;;;6.80;99.90;;;;;;4992020;28;20072;-74
2021/03/26 04:32:52;;;;;;;19.55;14.10;;;6.70;99.90;;;;;;4991309;28;20507;-75
2021/03/26 04:35:19;;;;;;;22.27;15.38;;;6.80;99.90;;;;;;4991321;28;20029;-75
2021/03/26 04:38:07;;;;;;;18.85;15.35;;;6.90;99.90;;;;;;4974793;28;20356;-75
2021/03/26 04:40:40;;;;;;;28.48;16.33;;;7.00;99.90;;;;;;4993740;28;20424;-74
2021/03/26 04:43:24;;;;;;;16.83;13.93;;;7.00;99.90;;;;;;4991646;28;20057;-75
2021/03/26 04:46:17;;;;;;;19.52;16.13;;;7.00;99.90;;;;;;4991511;28;20030;-74
2021/03/26 04:49:01;;;;;;;;;;;6.90;99.90;;;;;;4986240;28;20030;-75
2021/03/26 04:51:49;;;;;;;19.40;15.32;;;6.90;99.90;;;;;;4991907;28;19916;-75
2021/03/26 04:54:36;;;;;;;21.48;16.27;;;7.00;99.90;;;;;;4991978;28;20038;-74
2021/03/26 04:57:28;;;;;;;21.10;14.45;;;7.00;99.90;;;;;;4989638;28;20034;-75
2021/03/26 05:00:11;;;;;;;26.10;18.52;;;6.90;99.90;;;;;;4992245;28;20109;-74
2021/03/26 05:02:38;;;;;;;;;;;6.80;99.90;;;;;;4999656;28;20361;-74
2021/03/26 05:05:06;;;;;;;24.98;15.32;;;6.80;99.90;;;;;;5000454;28;19910;-74
2021/03/26 05:07:41;;;;;;;26.88;16.35;;;6.90;99.90;;;;;;4998761;28;20388;-73
2021/03/26 05:10:15;;;;;;;21.48;17.55;;;7.00;99.90;;;;;;4991979;28;20466;-74
2021/03/26 05:12:50;;;;;;;19.83;16.75;;;6.80;99.90;;;;;;4984929;28;20038;-73
2021/03/26 05:15:24;;;;;;;32.85;22.65;;;6.70;99.90;;;;;;4990206;28;20075;-74
2021/03/26 05:18:13;;;;;;;22.92;19.20;;;6.60;99.90;;;;;;4990744;28;20077;-73
2021/03/26 05:21:10;;;;;;;25.58;19.65;;;6.50;99.90;;;;;;4990995;28;20084;-73
2021/03/26 05:23:42;;;;;;;30.35;19.02;;;6.50;99.90;;;;;;4987105;28;20022;-73
2021/03/26 05:26:08;;;;;;;26.17;19.17;;;6.50;99.90;;;;;;4991458;28;20049;-73
2021/03/26 05:28:40;;;;;;;28.65;18.63;;;6.50;99.90;;;;;;4990570;28;20046;-75
2021/03/26 05:31:31;;;;;;;26.58;20.15;;;6.50;99.90;;;;;;4974154;28;20547;-74
2021/03/26 05:34:00;;;;;;;34.53;22.05;;;6.50;99.90;;;;;;4990673;28;20034;-73
2021/03/26 05:36:46;;;;;;;25.00;19.52;;;6.50;99.90;;;;;;4973014;28;20053;-73
2021/03/26 05:39:23;;;;;;;33.67;20.30;;;6.50;99.90;;;;;;4987450;28;20025;-74
2021/03/26 05:42:09;;;;;;;27.63;17.92;;;6.60;99.90;;;;;;4990994;28;20034;-73
2021/03/26 05:44:40;;;;;;;23.73;16.17;;;6.60;99.90;;;;;;4990610;28;20035;-74
2021/03/26 05:47:15;;;;;;;26.48;17.60;;;6.70;99.90;;;;;;4991271;28;20105;-74
2021/03/26 05:50:18;;;;;;;26.20;18.15;;;6.70;99.90;;;;;;4987447;28;20034;-73
2021/03/26 05:53:02;;;;;;;30.65;18.20;;;6.90;99.90;;;;;;4990045;28;20518;-74
2021/03/26 05:55:43;;;;;;;28.80;16.95;;;7.10;99.90;;;;;;4991584;28;20435;-74
2021/03/26 05:58:24;;;;;;;24.65;17.13;;;7.40;99.90;;;;;;4977566;28;20030;-73
2021/03/26 06:00:53;;;;;;;25.02;18.15;;;7.50;99.90;;;;;;4991799;28;20154;-74
2021/03/26 06:03:37;;;;;;;23.55;17.23;;;7.60;99.90;;;;;;4990650;28;20037;-74
2021/03/26 06:06:45;;;;;;;24.73;16.98;;;7.60;99.90;;;;;;4983098;28;20034;-73
2021/03/26 06:09:31;;;;;;;22.75;14.45;;;7.70;99.90;;;;;;4993185;28;20026;-75
2021/03/26 06:12:18;;;;;;;22.50;14.73;;;7.80;99.90;;;;;;4989750;28;20034;-75
2021/03/26 06:15:29;;;;;;;23.70;16.05;;;7.90;99.90;;;;;;4991385;28;20023;-75
2021/03/26 06:18:29;;;;;;;34.00;18.77;;;8.00;99.90;;;;;;4975433;28;20042;-74
2021/03/26 06:21:20;;;;;;;19.40;13.15;;;8.10;99.90;;;;;;4988820;28;20117;-74
2021/03/26 06:24:04;;;;;;;31.70;14.57;;;8.50;99.90;;;;;;4984104;28;20022;-74
2021/03/26 06:26:45;;;;;;;28.52;14.38;;;8.60;99.90;;;;;;4991498;28;20026;-74
2021/03/26 06:29:43;;;;;;;16.85;12.95;;;8.80;99.90;;;;;;4990670;28;20361;-74
2021/03/26 06:33:02;;;;;;;18.40;14.70;;;9.00;99.90;;;;;;4956853;28;20038;-74
2021/03/26 06:35:39;;;;;;;18.30;13.48;;;9.00;99.90;;;;;;4931838;28;20477;-74
2021/03/26 06:38:43;;;;;;;18.33;13.45;;;9.10;99.90;;;;;;4989949;28;20027;-74
2021/03/26 06:41:30;;;;;;;22.10;14.77;;;9.10;99.90;;;;;;4972857;28;20072;-74
2021/03/26 06:44:05;;;;;;;25.05;15.90;;;9.30;99.90;;;;;;4990533;28;20031;-74
2021/03/26 06:46:56;;;;;;;21.92;15.25;;;9.40;99.90;;;;;;4990379;28;20080;-74
2021/03/26 06:49:51;;;;;;;20.38;17.23;;;9.50;99.90;;;;;;4986586;28;20504;-74
2021/03/26 06:52:37;;;;;;;23.95;15.20;;;9.60;99.90;;;;;;4972541;28;20116;-75
2021/03/26 06:55:24;;;;;;;23.17;18.17;;;9.70;99.90;;;;;;4956564;28;20034;-75
2021/03/26 06:58:11;;;;;;;31.90;22.02;;;9.90;99.90;;;;;;4978135;28;20158;-75
2021/03/26 07:01:01;;;;;;;31.17;22.95;;;10.00;99.90;;;;;;4986509;28;20077;-75
2021/03/26 07:03:48;;;;;;;26.83;21.13;;;10.20;99.90;;;;;;4989394;28;20053;-74
2021/03/26 07:06:57;;;;;;;28.85;21.55;;;10.30;99.90;;;;;;4981610;28;20050;-76
2021/03/26 07:09:23;;;;;;;34.72;22.60;;;10.50;99.90;;;;;;4984169;28;20114;-76
2021/03/26 07:12:34;;;;;;;33.85;24.25;;;10.60;99.90;;;;;;4989256;28;20117;-76
2021/03/26 07:15:04;;;;;;;30.85;24.60;;;10.70;99.90;;;;;;4984226;28;20069;-75
2021/03/26 07:17:54;;;;;;;48.78;25.98;;;10.80;99.90;;;;;;4989732;28;20396;-70
2021/03/26 07:20:58;;;;;;;38.28;27.10;;;10.90;99.90;;;;;;4989689;28;20034;-70
2021/03/26 07:23:51;;;;;;;45.13;27.33;;;10.90;99.90;;;;;;4990351;28;20046;-69
2021/03/26 07:26:26;;;;;;;35.72;24.98;;;11.00;99.90;;;;;;4993479;28;20018;-72
2021/03/26 07:29:30;;;;;;;37.05;24.67;;;11.20;99.90;;;;;;4992857;28;20035;-72
2021/03/26 07:32:20;;;;;;;38.50;24.95;;;11.30;99.90;;;;;;4993870;28;20100;-70
2021/03/26 07:35:16;;;;;;;41.35;24.77;;;11.40;99.90;;;;;;4993244;28;20109;-71
2021/03/26 07:38:27;;;;;;;48.15;26.83;;;11.50;99.90;;;;;;4994062;28;20032;-73
2021/03/26 07:41:05;;;;;;;46.20;23.13;;;11.60;99.90;;;;;;4993283;28;20030;-70
2021/03/26 07:43:46;;;;;;;39.95;24.52;;;11.70;99.90;;;;;;4992585;28;20093;-72
2021/03/26 07:46:38;;;;;;;33.97;22.77;;;11.80;99.90;;;;;;4992416;28;20117;-73
2021/03/26 07:49:39;;;;;;;59.45;26.40;;;11.90;99.90;;;;;;4976018;28;20062;-73
2021/03/26 07:52:35;;;;;;;38.35;24.10;;;12.00;99.90;;;;;;4973876;28;20045;-69
2021/03/26 07:55:34;;;;;;;44.50;25.13;;;12.10;99.90;;;;;;4988729;28;20432;-71
2021/03/26 07:58:15;;;;;;;34.90;24.80;;;12.20;99.90;;;;;;4993291;28;20027;-70
2021/03/26 08:01:02;;;;;;;40.58;26.77;;;12.20;99.90;;;;;;4993087;28;20022;-70
2021/03/26 08:03:37;;;;;;;35.92;24.08;;;12.40;99.90;;;;;;4992253;28;20031;-70
2021/03/26 08:06:26;;;;;;;39.38;24.85;;;12.40;99.90;;;;;;4993399;28;20027;-73
2021/03/26 08:08:55;;;;;;;47.40;27.90;;;12.50;99.90;;;;;;4993164;28;20439;-71
2021/03/26 08:11:56;;;;;;;38.72;27.42;;;12.50;99.90;;;;;;4992409;28;20142;-71
2021/03/26 08:14:28;;;;;;;40.30;27.67;;;12.60;99.90;;;;;;4993287;28;20052;-72
2021/03/26 08:16:56;;;;;;;33.35;25.10;;;12.70;99.90;;;;;;4992802;28;20027;-72
2021/03/26 08:20:00;;;;;;;39.97;25.77;;;12.70;99.90;;;;;;4993155;28;20026;-73
2021/03/26 08:22:40;;;;;;;37.70;26.23;;;12.70;99.90;;;;;;4991671;28;20384;-71
2021/03/26 08:25:48;;;;;;;44.97;25.58;;;12.90;99.90;;;;;;4991982;28;20113;-73
2021/03/26 08:28:32;;;;;;;36.15;25.35;;;13.00;99.90;;;;;;4975056;28;20038;-72
2021/03/26 08:31:26;;;;;;;35.58;22.55;;;13.10;99.90;;;;;;4992171;28;20033;-74
2021/03/26 08:34:32;;;;;;;34.47;28.20;;;13.00;99.90;;;;;;4975316;28;20404;-73
2021/03/26 08:37:04;;;;;;;33.15;25.40;;;13.00;99.90;;;;;;4951976;28;20070;-71
2021/03/26 08:39:55;;;;;;;34.72;26.23;;;13.00;99.90;;;;;;4992241;28;20096;-72
2021/03/26 08:42:35;;;;;;;37.42;27.13;;;13.00;99.90;;;;;;4985866;28;20069;-70
2021/03/26 08:45:09;;;;;;;43.38;28.15;;;13.10;99.90;;;;;;4992493;28;20513;-73
2021/03/26 08:47:40;;;;;;;41.78;26.40;;;13.00;99.90;;;;;;4990522;28;20038;-70
2021/03/26 08:50:25;;;;;;;37.55;26.20;;;13.00;99.90;;;;;;4983819;28;20027;-70
2021/03/26 08:53:21;;;;;;;40.88;24.83;;;13.00;99.90;;;;;;4990528;28;20030;-70
2021/03/26 08:56:18;;;;;;;39.30;25.80;;;13.00;99.90;;;;;;4989172;28;20372;-72
2021/03/26 08:58:50;;;;;;;62.60;27.67;;;12.80;99.90;;;;;;4991898;28;20058;-70
2021/03/26 09:02:10;;;;;;;38.38;26.52;;;12.80;99.90;;;;;;4992081;28;20061;-70
2021/03/26 09:05:02;;;;;;;35.10;27.42;;;12.80;99.90;;;;;;4916347;29;20067;-73
2021/03/26 09:08:05;;;;;;;42.60;29.38;;;12.90;99.90;;;;;;4991795;28;20080;-73
2021/03/26 09:10:55;;;;;;;43.42;28.27;;;13.00;99.90;;;;;;4992296;28;20072;-70
2021/03/26 09:13:33;;;;;;;50.53;30.60;;;13.10;99.90;;;;;;4993233;28;20440;-71
2021/03/26 09:16:12;;;;;;;41.05;30.83;;;13.10;99.90;;;;;;4993907;28;20544;-70
2021/03/26 09:18:46;;;;;;;46.95;32.45;;;13.20;99.90;;;;;;4991681;28;20102;-73
2021/03/26 09:21:33;;;;;;;39.00;29.45;;;13.20;99.90;;;;;;4990561;28;20030;-70
2021/03/26 09:24:25;;;;;;;39.80;28.85;;;13.20;99.90;;;;;;4991903;28;20026;-72
2021/03/26 09:27:10;;;;;;;39.70;29.73;;;13.10;99.90;;;;;;4980634;28;20415;-71
2021/03/26 09:30:05;;;;;;;44.50;30.95;;;13.20;99.90;;;;;;4991374;28;20064;-71
2021/03/26 09:33:14;;;;;;;41.78;29.98;;;13.30;99.90;;;;;;4977771;28;20042;-71
2021/03/26 09:35:45;;;;;;;42.08;30.55;;;13.30;99.90;;;;;;4986495;28;20043;-72
2021/03/26 09:38:13;;;;;;;45.38;33.58;;;13.20;99.90;;;;;;4991643;28;20053;-72
2021/03/26 09:40:52;;;;;;;48.45;32.88;;;13.30;99.90;;;;;;4988335;28;20026;-72
2021/03/26 09:43:40;;;;;;;46.42;34.03;;;13.30;99.90;;;;;;4990504;28;20076;-72
2021/03/26 09:46:12;;;;;;;47.20;36.17;;;13.40;99.90;;;;;;4990252;28;20030;-72
2021/03/26 09:48:42;;;;;;;49.35;34.65;;;13.50;99.90;;;;;;4991196;28;20051;-72
2021/03/26 09:51:24;;;;;;;56.35;37.25;;;13.60;99.90;;;;;;4990682;28;20445;-72
2021/03/26 09:53:52;;;;;;;52.08;37.13;;;13.60;99.90;;;;;;4990279;28;20022;-72
2021/03/26 09:56:25;;;;;;;45.53;36.58;;;13.60;99.90;;;;;;4990419;28;20022;-70
2021/03/26 09:59:04;;;;;;;48.53;34.45;;;13.60;99.90;;;;;;4990715;28;20030;-71
2021/03/26 10:01:48;;;;;;;47.83;35.50;;;13.60;99.90;;;;;;4991016;28;20026;-71
2021/03/26 10:04:23;;;;;;;46.78;35.97;;;13.80;99.90;;;;;;4988834;28;20039;-70
2021/03/26 10:07:12;;;;;;;52.08;34.92;;;13.80;99.90;;;;;;4991339;28;20105;-73
2021/03/26 10:10:01;;;;;;;51.40;36.05;;;13.80;99.90;;;;;;4990405;28;20109;-73
2021/03/26 10:12:32;;;;;;;48.80;34.33;;;13.70;99.90;;;;;;4984864;28;20026;-73
2021/03/26 10:15:01;;;;;;;50.58;38.10;;;13.80;99.90;;;;;;4990525;28;20022;-70
2021/03/26 10:17:56;;;;;;;44.92;36.17;;;13.80;99.90;;;;;;4972591;28;20030;-72
2021/03/26 10:20:27;;;;;;;45.22;32.25;;;13.80;99.90;;;;;;4984234;28;20035;-72
2021/03/26 10:23:04;;;;;;;40.63;32.83;;;13.90;99.90;;;;;;4990371;28;20030;-73
2021/03/26 10:25:38;;;;;;;47.00;35.58;;;14.10;99.90;;;;;;4990970;28;20023;-73
2021/03/26 10:28:18;;;;;;;47.63;36.17;;;14.20;99.90;;;;;;4990742;28;20039;-71
2021/03/26 10:31:09;;;;;;;53.70;39.20;;;14.30;99.90;;;;;;4991004;28;20033;-72
2021/03/26 10:33:45;;;;;;;55.58;33.47;;;14.30;99.90;;;;;;4985308;28;20706;-70
2021/03/26 10:36:20;;;;;;;47.85;34.85;;;14.30;99.90;;;;;;4990976;28;20568;-73
2021/03/26 10:38:45;;;;;;;50.97;35.00;;;14.30;99.90;;;;;;4990489;28;20042;-71
2021/03/26 10:41:31;;;;;;;47.33;32.83;;;14.30;99.90;;;;;;4990337;28;20428;-70
2021/03/26 10:44:21;;;;;;;42.20;31.88;;;14.30;99.90;;;;;;4987885;28;20046;-72
2021/03/26 10:47:12;;;;;;;45.28;31.50;;;14.40;99.90;;;;;;4989039;28;20030;-70
2021/03/26 10:49:43;;;;;;;41.67;30.33;;;14.50;99.90;;;;;;4986187;28;20076;-71
2021/03/26 10:52:26;;;;;;;48.60;30.25;;;14.40;99.90;;;;;;4989932;28;20057;-72
2021/03/26 10:55:00;;;;;;;42.47;27.73;;;14.40;99.90;;;;;;4990771;28;20061;-71
2021/03/26 10:57:37;;;;;;;33.30;24.13;;;14.30;99.90;;;;;;4990020;28;20030;-71
2021/03/26 11:00:35;;;;;;;35.00;25.13;;;14.20;99.90;;;;;;4992959;28;20641;-71
2021/03/26 11:03:05;;;;;;;39.35;25.88;;;14.10;99.90;;;;;;4994644;28;20428;-70
2021/03/26 11:05:37;;;;;;;43.88;28.23;;;13.90;99.90;;;;;;4993533;28;20452;-70
2021/03/26 11:08:02;;;;;;;39.00;28.60;;;13.80;99.90;;;;;;4993520;28;20118;-71
2021/03/26 11:10:36;;;;;;;42.22;26.25;;;13.70;99.90;;;;;;4989854;28;20105;-72
2021/03/26 11:13:39;;;;;;;43.42;28.55;;;13.60;99.90;;;;;;4987373;28;20022;-70
2021/03/26 11:16:06;;;;;;;48.13;29.00;;;13.50;99.90;;;;;;4993577;28;20033;-71
2021/03/26 11:19:07;;;;;;;47.55;31.95;;;13.50;99.90;;;;;;4993905;28;20081;-71
2021/03/26 11:21:46;;;;;;;51.55;30.90;;;13.50;99.90;;;;;;4993096;28;20125;-72
2021/03/26 11:24:12;;;;;;;49.38;32.67;;;13.60;99.90;;;;;;4993799;28;20042;-70
2021/03/26 11:26:45;;;;;;;41.75;30.48;;;13.50;99.90;;;;;;4993261;28;20049;-71
2021/03/26 11:29:13;;;;;;;45.35;29.02;;;13.50;99.90;;;;;;4994448;28;20026;-70
2021/03/26 11:32:09;;;;;;;44.00;30.73;;;13.60;99.90;;;;;;4993392;28;20508;-70
2021/03/26 11:34:43;;;;;;;44.15;30.10;;;13.50;99.90;;;;;;4993935;28;20029;-71
2021/03/26 11:37:10;;;;;;;40.33;31.35;;;13.60;99.90;;;;;;4975509;28;20527;-72
2021/03/26 11:39:54;;;;;;;46.25;29.48;;;13.60;99.90;;;;;;4992885;28;20473;-73
2021/03/26 11:42:44;;;;;;;49.63;33.50;;;13.70;99.90;;;;;;4988013;28;20057;-73
2021/03/26 11:45:36;;;;;;;50.80;31.08;;;13.70;99.90;;;;;;4993311;28;20093;-77
2021/03/26 11:48:09;;;;;;;46.40;32.78;;;13.90;99.90;;;;;;4995378;28;20022;-77
2021/03/26 11:50:40;;;;;;;50.80;35.17;;;13.90;99.90;;;;;;4995938;28;20077;-75
2021/03/26 11:53:08;;;;;;;46.13;32.97;;;13.80;99.90;;;;;;4993223;28;20504;-75
2021/03/26 11:55:37;;;;;;;48.63;32.90;;;13.80;99.90;;;;;;4986645;28;20444;-76
2021/03/26 11:58:28;;;;;;;41.88;30.05;;;14.00;99.90;;;;;;4992625;28;20670;-76
2021/03/26 12:00:58;;;;;;;44.33;29.15;;;14.10;99.90;;;;;;4993185;28;20134;-74
2021/03/26 12:04:03;;;;;;;42.47;28.85;;;14.10;99.90;;;;;;4993429;28;20029;-73
2021/03/26 12:06:45;;;;;;;44.05;26.85;;;14.00;99.90;;;;;;4985672;28;20723;-75
2021/03/26 12:09:52;;;;;;;40.78;27.38;;;14.00;99.90;;;;;;4981191;28;20047;-75
2021/03/26 12:12:48;;;;;;;33.35;24.85;;;13.90;99.90;;;;;;4963988;28;20038;-76
2021/03/26 12:15:24;;;;;;;40.83;27.27;;;13.90;99.90;;;;;;4984589;28;20489;-75
2021/03/26 12:17:52;;;;;;;45.40;31.10;;;14.10;99.90;;;;;;4975584;28;20026;-75
2021/03/26 12:20:40;;;;;;;43.33;29.90;;;14.00;99.90;;;;;;4993406;28;20030;-76
2021/03/26 12:23:31;;;;;;;26.75;22.25;;;13.90;99.90;;;;;;4993449;28;20109;-75
2021/03/26 12:26:21;;;;;;;27.52;21.95;;;13.90;99.90;;;;;;5000341;28;20034;-77
2021/03/26 12:28:53;;;;;;;26.55;22.73;;;14.00;99.90;;;;;;5001676;28;20041;-75
2021/03/26 12:31:29;;;;;;;25.23;18.73;;;14.30;99.90;;;;;;5002111;28;20097;-75
2021/03/26 12:34:05;;;;;;;25.73;19.13;;;14.30;99.90;;;;;;4999239;28;20026;-76
2021/03/26 12:36:39;;;;;;;29.83;18.48;;;14.20;99.90;;;;;;4992306;28;20487;-76
2021/03/26 12:39:08;;;;;;;23.35;18.67;;;14.30;99.90;;;;;;4992643;28;20452;-76
2021/03/26 12:42:06;;;;;;;23.73;18.10;;;14.30;99.90;;;;;;4992232;28;20030;-76
2021/03/26 12:44:44;;;;;;;30.60;17.90;;;14.20;99.90;;;;;;4986817;28;20073;-76
2021/03/26 12:47:20;;;;;;;24.42;16.27;;;14.30;99.90;;;;;;4987387;28;20105;-71
2021/03/26 12:49:52;;;;;;;23.02;17.05;;;14.20;99.90;;;;;;4991941;28;20053;-70
2021/03/26 12:53:09;;;;;;;20.92;16.35;;;14.00;99.90;;;;;;4991890;28;20018;-71
2021/03/26 12:55:45;;;;;;;21.63;17.23;;;14.10;99.90;;;;;;4945920;28;20062;-70
2021/03/26 12:58:26;;;;;;;21.25;18.00;;;13.80;99.90;;;;;;4991486;28;20129;-70
2021/03/26 13:01:01;;;;;;;22.45;18.10;;;13.80;99.90;;;;;;4994213;28;20018;-71
2021/03/26 13:03:32;;;;;;;22.83;18.85;;;13.70;99.90;;;;;;4992754;28;20022;-72
2021/03/26 13:06:05;;;;;;;25.25;18.13;;;13.70;99.90;;;;;;4992005;28;20022;-71
2021/03/26 13:08:36;;;;;;;17.52;15.65;;;13.70;99.90;;;;;;4989997;28;20041;-70
2021/03/26 13:11:26;;;;;;;19.40;17.50;;;13.60;99.90;;;;;;4977548;28;20034;-71
2021/03/26 13:13:52;;;;;;;16.65;14.90;;;13.60;99.90;;;;;;4991230;28;20077;-71
2021/03/26 13:16:18;;;;;;;18.92;16.95;;;13.50;99.90;;;;;;4992272;28;20023;-71
2021/03/26 13:18:48;;;;;;;19.55;15.75;;;13.50;99.90;;;;;;4991260;28;20530;-71
2021/03/26 13:21:51;;;;;;;18.63;16.73;;;13.50;99.90;;;;;;4991485;28;20042;-72
2021/03/26 13:24:38;;;;;;;22.08;15.00;;;13.60;99.90;;;;;;4987090;28;20027;-71
2021/03/26 13:27:22;;;;;;;21.38;16.55;;;13.60;99.90;;;;;;4990217;28;20097;-70
2021/03/26 13:30:14;;;;;;;18.52;15.35;;;13.70;99.90;;;;;;4991746;28;20026;-71
2021/03/26 13:33:03;;;;;;;17.40;14.68;;;13.80;99.90;;;;;;4982740;28;20022;-73
2021/03/26 13:35:44;;;;;;;16.33;13.70;;;13.90;99.90;;;;;;4976902;28;20385;-71